»·PEaware :: SKY96 KSBP-KOAR

SKY96 :: KSBP-KOAR

FLIGHT INFORMATION

Flight Status: Arrived
Operator:
Sky High Charters
More flights by this operator :: More flights under this callsign
Pilot: Russell S. (24346)
Aircraft: BEECH AIRCRAFT DEBONAIR BONANZA
(BE33)
More flights by this aircraft type
Origin: KSBP San Luis Co Regl
United States
Destination: KOAR Marina
United States
More flights between these airports :: More routes between these airports
Route: CREPE3 PRB V248 SARDO ZURET
File this flight plan on PilotEdge
Remarks:
Altitude:
(Current/Filed)
8,000ft
Speed:
(Current/Filed)
160kts
Departed: 13-Aug-19 02:38 PM
Arrived: 13-Aug-19 03:31 PM
Distance/Time
Traveled:
102nm/0:53
Distance/Time
To Go:
Arrived

Flight Plot

Page will automatically refresh every two minutes.


Map Options




Map Legend


Flown Route
Filed Route
Departure Airport
Arrival Airport
Navaid (VOR, NDB)
Fix

Horizontal Profiles

Position Reports

Time Latitude Longitude Heading Altitude Ground
Speed
13-Aug-19 14:06 35.234431 -120.632959 214 216ft 0kts
13-Aug-19 14:07 35.234431 -120.632959 214 216ft 0kts
13-Aug-19 14:08 35.234431 -120.632959 214 216ft 0kts
13-Aug-19 14:09 35.234431 -120.632959 214 216ft 0kts
13-Aug-19 14:10 35.234431 -120.632959 214 216ft 0kts
13-Aug-19 14:11 35.234431 -120.632959 214 216ft 0kts
13-Aug-19 14:12 35.234431 -120.632959 214 216ft 0kts
13-Aug-19 14:13 35.234431 -120.632959 214 216ft 0kts
13-Aug-19 14:14 35.234431 -120.632959 214 216ft 0kts
13-Aug-19 14:15 35.234431 -120.632959 214 216ft 0kts
13-Aug-19 14:16 35.234431 -120.632959 214 216ft 0kts
13-Aug-19 14:17 35.234431 -120.632959 214 216ft 0kts
13-Aug-19 14:18 35.234431 -120.632959 214 216ft 0kts
13-Aug-19 14:19 35.234431 -120.632959 214 216ft 0kts
13-Aug-19 14:20 35.234431 -120.632959 214 216ft 0kts
13-Aug-19 14:21 35.234431 -120.632959 214 216ft 0kts
13-Aug-19 14:22 35.234431 -120.632959 214 216ft 0kts
13-Aug-19 14:23 35.234431 -120.632959 214 216ft 0kts
13-Aug-19 14:24 35.234431 -120.632959 214 216ft 0kts
13-Aug-19 14:25 35.234431 -120.632959 214 216ft 0kts
13-Aug-19 14:26 35.234431 -120.632959 214 216ft 0kts
13-Aug-19 14:27 35.234431 -120.632959 214 216ft 0kts
13-Aug-19 14:28 35.234431 -120.632959 214 216ft 0kts
13-Aug-19 14:29 35.234431 -120.632959 214 216ft 0kts
13-Aug-19 14:30 35.234431 -120.632959 214 216ft 0kts
13-Aug-19 14:31 35.234515 -120.633465 259 216ft 0kts
13-Aug-19 14:32 35.234515 -120.633465 259 216ft 0kts
13-Aug-19 14:33 35.234409 -120.633392 275 216ft 4kts
13-Aug-19 14:34 35.233221 -120.632299 217 215ft 0kts
13-Aug-19 14:35 35.233221 -120.632299 217 215ft 0kts
13-Aug-19 14:36 35.233130 -120.632386 216 216ft 4kts
13-Aug-19 14:37 35.239107 -120.643358 316 433ft 90kts
13-Aug-19 14:38 35.253518 -120.674532 304 1435ft 112kts
13-Aug-19 14:40 35.271228 -120.707020 307 2446ft 116kts
13-Aug-19 14:41 35.288551 -120.739981 310 3444ft 114kts
13-Aug-19 14:42 35.308590 -120.768953 310 4440ft 109kts
13-Aug-19 14:43 35.326657 -120.797326 309 5430ft 102kts
13-Aug-19 14:44 35.342153 -120.824006 308 6385ft 90kts
13-Aug-19 14:45 35.356943 -120.849805 308 7117ft 95kts
13-Aug-19 14:46 35.374549 -120.872189 5 7817ft 94kts
13-Aug-19 14:47 35.395561 -120.843065 36 7964ft 137kts
13-Aug-19 14:48 35.429287 -120.814624 29 7956ft 152kts
13-Aug-19 14:49 35.465586 -120.786556 29 7954ft 155kts
13-Aug-19 14:50 35.502371 -120.758381 29 7956ft 156kts
13-Aug-19 14:51 35.539073 -120.730135 28 7980ft 155kts
13-Aug-19 14:52 35.575725 -120.701883 28 7981ft 156kts
13-Aug-19 14:53 35.612395 -120.673595 28 7981ft 156kts
13-Aug-19 14:54 35.649201 -120.645172 28 7981ft 156kts
13-Aug-19 14:55 35.688882 -120.634722 345 7982ft 152kts
13-Aug-19 14:55 35.722729 -120.647273 341 7981ft 152kts
13-Aug-19 14:57 35.769946 -120.666120 341 7981ft 152kts
13-Aug-19 14:58 35.810247 -120.682223 341 7981ft 152kts
13-Aug-19 14:58 35.843890 -120.695676 341 7980ft 152kts
13-Aug-19 15:00 35.891090 -120.714568 341 7980ft 152kts
13-Aug-19 15:00 35.924692 -120.728032 341 7980ft 152kts
13-Aug-19 15:02 35.971770 -120.746916 341 7980ft 152kts
13-Aug-19 15:03 36.012127 -120.763124 341 7980ft 152kts
13-Aug-19 15:03 36.045742 -120.776637 341 7980ft 152kts
13-Aug-19 15:04 36.085592 -120.794139 322 7977ft 153kts
13-Aug-19 15:05 36.116662 -120.830690 316 7982ft 154kts
13-Aug-19 15:06 36.146926 -120.868191 316 7982ft 154kts
13-Aug-19 15:07 36.177072 -120.905935 316 7982ft 154kts
13-Aug-19 15:08 36.207285 -120.943864 316 7982ft 154kts
13-Aug-19 15:09 36.237393 -120.981715 316 7982ft 154kts
13-Aug-19 15:10 36.267482 -121.019588 316 7982ft 154kts
13-Aug-19 15:11 36.297593 -121.057534 316 7982ft 154kts
13-Aug-19 15:12 36.327712 -121.095534 316 7982ft 154kts
13-Aug-19 15:13 36.357751 -121.133478 316 7981ft 154kts
13-Aug-19 15:14 36.388049 -121.171800 316 7934ft 155kts
13-Aug-19 15:15 36.418606 -121.210444 316 7557ft 159kts
13-Aug-19 15:16 36.449731 -121.249822 316 6874ft 158kts
13-Aug-19 15:17 36.480343 -121.288708 316 6173ft 157kts
13-Aug-19 15:18 36.509278 -121.325481 316 5931ft 137kts
13-Aug-19 15:19 36.532896 -121.366114 307 5316ft 151kts
13-Aug-19 15:20 36.556799 -121.409290 307 4616ft 152kts
13-Aug-19 15:21 36.580839 -121.452719 307 3913ft 152kts
13-Aug-19 15:22 36.603224 -121.493362 307 3755ft 130kts
13-Aug-19 15:23 36.623680 -121.530324 307 3432ft 138kts
13-Aug-19 15:24 36.645974 -121.570823 307 2863ft 136kts
13-Aug-19 15:25 36.663391 -121.606719 286 2659ft 111kts
13-Aug-19 15:26 36.667739 -121.643609 282 1792ft 107kts
13-Aug-19 15:27 36.671305 -121.679743 282 1230ft 104kts
13-Aug-19 15:28 36.674418 -121.715890 276 751ft 105kts
13-Aug-19 15:29 36.675005 -121.749237 307 340ft 69kts
13-Aug-19 15:30 36.681556 -121.762554 225 133ft 15kts
13-Aug-19 15:31 36.681068 -121.763025 218 135ft 0kts
13-Aug-19 15:32 36.681068 -121.763025 218 135ft 0kts
13-Aug-19 15:33 36.681068 -121.763025 218 135ft 0kts
13-Aug-19 15:34 36.681068 -121.763025 218 135ft 0kts
13-Aug-19 15:35 36.681068 -121.763025 218 135ft 0kts

Navigation Log

Ident Type
Flight plan parsing failed, navigation log unavailable